Decoded Metar for GCTS (TENERIFE in SPAIN) (IATA:TFS) | Meteo·Mobile Aviation Weather
aviador You're here:

GCTS Decoded Metar

TENERIFE in SPAIN
Report Time2018-11-16 03:00:00
UTC Time2018-11-16 03:27:10
Flight Rules vfr VFR
Wind020° at 04 kt
W.Decomp.*RWY 08: 2.4 kt HW 3.2 kt LCW
W.Rank020° ranks 11
Current wind is below 020° avg. (5.3)
Visibility9999 m
Phenomena:N/A
Clouds:Scattered 030 Hf
Broken 040 Hf
Expected CloudBase > 2,000 ft AGL from Temp-Dew spread
Ceiling4,000 ft
Temp18°C (ISA +3)
Dew Point13°C (73% RH)
AAT17.5°C
QNH1015 hPa
Density Alt778 ft
Elevation236 ft
Report Wrong Elevation
Raw Report
GCTS 160300Z 02004KT 340V050 9999 SCT030 BKN040 18/13 Q1015
NOSIG=

Extra information for GCTS:More info

Metar Taf Metar & Taf Last 4 Metars F.Rules Stats Wind Profile Meteogram Temp Stats Airport Information Weather charts Add Link Nearby VenuesMetar ALERT Operation Metar Decoded Social comments